Time;durP1;ratioP1;P1;durP2;ratioP2;P2;SDS_P1;SDS_P2;PMS_P1;PMS_P2;Temp;Humidity;BMP_temperature;BMP_pressure;BME280_temperature;BME280_humidity;BME280_pressure;Samples;Min_cycle;Max_cycle;Signal;HPM_P1;HPM_P2
2021/05/06 00:07:06;;;;;;;3.43;2.40;;;4.90;99.20;;;;;;5058245;28;20745;-44
2021/05/06 00:33:19;;;;;;;4.93;3.10;;;4.90;99.20;;;;;;5057787;28;20480;-44
2021/05/06 00:35:46;;;;;;;4.60;2.90;;;4.90;99.20;;;;;;5057821;28;20424;-44
2021/05/06 00:38:21;;;;;;;5.23;3.13;;;5.00;99.20;;;;;;5057905;28;20408;-44
2021/05/06 00:41:09;;;;;;;5.70;2.63;;;5.00;99.20;;;;;;5057638;28;20544;-43
2021/05/06 00:54:28;;;;;;;4.43;3.13;;;4.90;99.90;;;;;;5085186;28;20485;-44
2021/05/06 00:57:05;;;;;;;5.17;2.73;;;5.00;99.90;;;;;;5057428;28;20698;-44
2021/05/06 01:12:42;;;;;;;6.67;3.10;;;4.90;99.90;;;;;;5057460;28;20423;-43
2021/05/06 01:15:26;;;;;;;3.87;2.77;;;4.90;99.80;;;;;;5056932;28;20423;-43
2021/05/06 01:20:39;;;;;;;4.17;2.93;;;4.90;99.80;;;;;;5084515;28;20467;-43
2021/05/06 01:23:44;;;;;;;5.50;3.00;;;4.90;99.80;;;;;;5090873;28;20408;-42
2021/05/06 01:36:23;;;;;;;3.50;2.50;;;4.90;99.90;;;;;;5060977;28;20883;-43
2021/05/06 01:47:58;;;;;;;4.63;2.87;;;5.00;99.50;;;;;;5060577;28;20454;-43
2021/05/06 02:01:05;;;;;;;4.10;3.27;;;5.20;98.70;;;;;;5060625;28;20916;-42
2021/05/06 02:03:31;;;;;;;7.80;3.33;;;5.20;98.60;;;;;;5060689;28;20412;-44
2021/05/06 02:05:58;;;;;;;3.93;2.93;;;5.20;98.30;;;;;;5060482;28;20431;-43
2021/05/06 02:08:23;;;;;;;5.17;2.80;;;5.30;98.30;;;;;;5060694;28;20412;-43
2021/05/06 02:10:51;;;;;;;6.30;3.17;;;5.30;98.40;;;;;;5060901;28;20490;-43
2021/05/06 02:13:16;;;;;;;4.13;2.77;;;5.20;98.50;;;;;;5060472;28;20208;-44
2021/05/06 02:15:48;;;;;;;10.70;5.20;;;5.20;98.50;;;;;;5060474;28;20432;-43
2021/05/06 02:18:16;;;;;;;3.00;2.73;;;5.20;98.50;;;;;;5059932;28;20208;-43
2021/05/06 02:20:42;;;;;;;5.83;3.37;;;5.30;98.30;;;;;;5059934;28;20472;-43
2021/05/06 02:23:08;;;;;;;7.00;3.63;;;5.20;98.40;;;;;;5060432;28;20435;-43
2021/05/06 02:25:34;;;;;;;7.40;3.50;;;5.30;98.30;;;;;;5060280;28;20690;-42
2021/05/06 02:27:59;;;;;;;5.53;3.67;;;5.30;98.40;;;;;;5060261;28;20178;-43
2021/05/06 02:30:25;;;;;;;4.13;2.57;;;5.30;98.40;;;;;;5060131;28;20227;-43
2021/05/06 02:32:51;;;;;;;4.77;3.50;;;5.30;98.40;;;;;;5060050;28;20185;-43
2021/05/06 02:35:17;;;;;;;5.50;3.47;;;5.20;98.40;;;;;;5060228;28;20177;-43
2021/05/06 02:37:43;;;;;;;6.50;3.70;;;5.20;98.50;;;;;;5059920;28;20842;-43
2021/05/06 02:40:10;;;;;;;5.20;3.00;;;5.20;98.70;;;;;;5060204;28;20408;-43
2021/05/06 02:42:36;;;;;;;5.33;2.70;;;5.20;98.70;;;;;;5059996;28;20479;-43
2021/05/06 02:45:02;;;;;;;4.87;3.77;;;5.10;98.80;;;;;;5059860;28;20404;-43
2021/05/06 02:47:28;;;;;;;3.83;3.07;;;5.10;99.30;;;;;;5059970;28;20428;-43
2021/05/06 02:49:55;;;;;;;3.90;2.73;;;5.10;98.90;;;;;;5059992;28;20435;-43
2021/05/06 02:54:59;;;;;;;6.00;3.53;;;5.10;99.10;;;;;;5059799;28;20470;-43
2021/05/06 03:02:49;;;;;;;4.60;3.33;;;5.10;99.50;;;;;;5059386;28;20537;-43
2021/05/06 03:05:15;;;;;;;5.33;3.30;;;5.00;99.40;;;;;;5059635;28;20412;-43
2021/05/06 03:07:44;;;;;;;4.93;3.50;;;5.10;99.60;;;;;;5059023;28;20428;-43
2021/05/06 03:23:21;;;;;;;7.90;3.90;;;5.20;99.90;;;;;;5059078;28;20612;-43
2021/05/06 03:25:48;;;;;;;6.50;3.40;;;5.20;99.90;;;;;;5059209;28;20408;-43
2021/05/06 03:28:19;;;;;;;5.00;3.40;;;5.20;99.90;;;;;;5059238;28;20178;-43
2021/05/06 03:44:23;;;;;;;3.90;2.97;;;5.10;99.90;;;;;;5058257;28;20455;-43
2021/05/06 04:37:48;;;;;;;7.60;4.27;;;4.60;99.90;;;;;;5056283;28;20470;-43
2021/05/06 04:40:49;;;;;;;5.70;3.63;;;4.60;99.90;;;;;;5089171;28;20444;-42
2021/05/06 04:54:30;;;;;;;5.40;3.50;;;4.70;99.90;;;;;;5057366;28;20407;-43
2021/05/06 04:56:43;;;;;;;4.13;3.73;;;4.80;99.90;;;;;;5048682;28;20432;-43
2021/05/06 05:03:13;;;;;;;4.60;3.80;;;5.00;99.90;;;;;;5055725;28;20415;-42
2021/05/06 05:04:47;;;;;;;3.97;3.57;;;5.20;99.90;;;;;;5056200;28;20466;-43
2021/05/06 05:07:20;;;;;;;6.27;3.80;;;5.30;99.90;;;;;;5057231;28;20837;-43
2021/05/06 05:27:50;;;;;;;6.70;3.37;;;5.90;99.90;;;;;;5056568;28;20841;-43
2021/05/06 05:30:16;;;;;;;4.30;2.73;;;5.90;99.40;;;;;;5056699;28;20409;-43
2021/05/06 05:32:42;;;;;;;5.60;2.93;;;6.00;99.30;;;;;;5056582;28;20189;-43
2021/05/06 05:35:30;;;;;;;4.03;2.73;;;6.10;99.10;;;;;;5056592;28;20435;-43
2021/05/06 05:38:04;;;;;;;4.43;2.93;;;6.10;99.00;;;;;;5054812;28;20205;-43
2021/05/06 05:43:32;;;;;;;6.77;3.00;;;5.80;98.80;;;;;;5054733;28;20468;-43
2021/05/06 05:46:24;;;;;;;3.23;2.27;;;5.80;98.80;;;;;;5052206;28;20447;-43
2021/05/06 05:56:42;;;;;;;4.23;2.70;;;5.90;98.80;;;;;;5054357;28;20458;-43
2021/05/06 05:59:08;;;;;;;4.90;3.03;;;5.90;98.60;;;;;;5054683;28;20712;-44
2021/05/06 06:01:34;;;;;;;3.87;2.80;;;5.90;98.70;;;;;;5053428;28;20292;-43
2021/05/06 06:03:59;;;;;;;4.60;2.80;;;5.90;98.60;;;;;;5055573;28;20686;-42
2021/05/06 06:06:26;;;;;;;5.83;3.27;;;6.00;98.50;;;;;;5056047;28;20188;-41
2021/05/06 06:08:52;;;;;;;3.60;2.40;;;5.90;98.20;;;;;;5055425;28;20186;-43
2021/05/06 06:11:18;;;;;;;5.77;2.83;;;6.00;98.10;;;;;;5060304;28;20462;-41
2021/05/06 06:13:47;;;;;;;3.03;2.40;;;6.00;98.20;;;;;;5059787;28;20235;-43
2021/05/06 06:16:22;;;;;;;4.93;2.90;;;6.00;98.20;;;;;;5056510;28;20416;-41
2021/05/06 06:18:54;;;;;;;5.83;3.37;;;6.10;98.20;;;;;;5056888;28;20714;-43
2021/05/06 06:21:53;;;;;;;4.13;3.10;;;6.10;97.90;;;;;;5058426;28;20484;-42
2021/05/06 06:24:11;;;;;;;4.77;3.43;;;6.10;97.80;;;;;;5057042;28;20502;-43
2021/05/06 06:26:37;;;;;;;5.77;2.87;;;6.20;97.70;;;;;;5058944;28;20844;-43
2021/05/06 06:29:12;;;;;;;5.07;3.13;;;6.20;97.40;;;;;;5058546;28;20603;-44
2021/05/06 06:31:44;;;;;;;7.30;2.80;;;6.40;97.30;;;;;;5058047;28;20453;-43
2021/05/06 06:34:09;;;;;;;9.60;2.90;;;6.50;97.20;;;;;;5058576;28;20404;-43
2021/05/06 06:36:36;;;;;;;4.83;2.70;;;6.60;97.10;;;;;;5058324;28;20428;-43
2021/05/06 06:39:03;;;;;;;6.50;2.70;;;6.50;97.00;;;;;;5059116;28;20178;-44
2021/05/06 06:41:28;;;;;;;6.10;3.10;;;6.50;97.20;;;;;;5059149;28;20738;-43
2021/05/06 06:43:58;;;;;;;8.63;3.70;;;6.60;96.90;;;;;;5060060;28;20425;-43
2021/05/06 06:46:24;;;;;;;4.40;3.63;;;6.60;97.20;;;;;;5059225;28;20565;-40
2021/05/06 06:48:49;;;;;;;7.53;3.30;;;6.70;97.20;;;;;;5058455;28;20424;-44
2021/05/06 06:51:15;;;;;;;7.20;4.07;;;6.70;97.10;;;;;;5058878;28;20181;-44
2021/05/06 06:53:41;;;;;;;5.33;3.10;;;6.80;96.50;;;;;;5058250;28;20182;-43
2021/05/06 06:56:06;;;;;;;11.57;3.90;;;6.90;96.40;;;;;;5058703;28;20169;-43
2021/05/06 06:58:32;;;;;;;5.93;3.70;;;6.80;96.50;;;;;;5057711;28;20214;-42
2021/05/06 07:00:58;;;;;;;5.77;3.50;;;7.00;96.40;;;;;;5057270;28;20193;-43
2021/05/06 07:03:24;;;;;;;6.30;3.30;;;7.10;96.30;;;;;;5056458;28;20522;-44
2021/05/06 07:05:50;;;;;;;6.37;3.70;;;7.30;96.40;;;;;;5056758;28;20814;-44
2021/05/06 07:08:17;;;;;;;4.80;3.23;;;7.40;95.90;;;;;;5057687;28;20584;-44
2021/05/06 07:10:44;;;;;;;5.90;3.33;;;7.40;95.50;;;;;;5058054;28;20568;-44
2021/05/06 07:13:10;;;;;;;8.70;3.50;;;7.40;95.40;;;;;;5058056;28;20782;-44
2021/05/06 07:15:36;;;;;;;6.87;3.30;;;7.40;95.40;;;;;;5057941;28;20507;-41
2021/05/06 07:18:02;;;;;;;3.80;3.40;;;7.40;95.20;;;;;;5059280;28;20269;-44
2021/05/06 07:20:27;;;;;;;4.40;3.23;;;7.60;95.20;;;;;;5057920;28;20491;-43
2021/05/06 07:22:54;;;;;;;4.80;3.07;;;7.80;95.00;;;;;;5058394;28;20221;-43
2021/05/06 07:25:19;;;;;;;10.13;3.17;;;7.80;94.90;;;;;;5059409;28;20495;-43
2021/05/06 07:27:45;;;;;;;6.60;3.03;;;7.60;94.70;;;;;;5057726;28;20424;-42
2021/05/06 07:30:11;;;;;;;7.50;3.37;;;7.80;94.90;;;;;;5057249;28;20181;-44
2021/05/06 07:32:37;;;;;;;5.53;3.50;;;8.10;94.40;;;;;;5057550;28;20232;-43
2021/05/06 07:35:04;;;;;;;5.50;3.17;;;8.40;94.00;;;;;;5057892;28;20494;-43
2021/05/06 07:37:30;;;;;;;4.13;3.33;;;8.40;93.50;;;;;;5057360;28;20448;-44
2021/05/06 07:39:55;;;;;;;5.63;3.40;;;8.70;93.50;;;;;;5057077;28;20416;-44
2021/05/06 07:42:21;;;;;;;5.80;3.23;;;9.30;92.90;;;;;;5058017;28;20897;-44
2021/05/06 07:44:47;;;;;;;5.67;2.50;;;9.80;92.00;;;;;;5057394;28;20238;-43
2021/05/06 07:47:13;;;;;;;5.00;3.13;;;10.30;91.20;;;;;;5056798;28;20240;-41
2021/05/06 07:49:38;;;;;;;6.17;2.93;;;10.70;89.20;;;;;;5057159;28;20181;-43
2021/05/06 07:52:06;;;;;;;7.40;2.70;;;11.20;87.30;;;;;;5057657;28;20443;-44
2021/05/06 07:54:31;;;;;;;6.33;2.90;;;10.90;86.90;;;;;;5056615;28;20234;-40
2021/05/06 07:57:00;;;;;;;7.30;3.00;;;11.20;86.00;;;;;;5056578;28;20444;-43
2021/05/06 07:59:26;;;;;;;5.77;2.43;;;10.50;85.80;;;;;;5057785;28;20184;-43
2021/05/06 08:01:52;;;;;;;4.30;2.47;;;10.50;86.50;;;;;;5058878;28;20865;-42
2021/05/06 08:04:22;;;;;;;6.17;2.80;;;10.60;86.90;;;;;;5057605;28;20431;-44
2021/05/06 08:06:48;;;;;;;7.33;2.97;;;9.60;88.50;;;;;;5056984;28;20464;-44
2021/05/06 08:09:14;;;;;;;6.47;3.17;;;9.40;90.30;;;;;;5056382;28;20474;-42
2021/05/06 08:11:39;;;;;;;3.80;2.97;;;9.70;90.30;;;;;;5056772;28;20432;-44
2021/05/06 08:14:05;;;;;;;5.10;2.80;;;9.40;90.40;;;;;;5057170;28;20552;-43
2021/05/06 08:16:31;;;;;;;5.13;3.23;;;9.70;90.50;;;;;;5056439;28;20185;-43
2021/05/06 08:18:57;;;;;;;5.77;2.63;;;9.90;90.30;;;;;;5056325;28;20178;-43
2021/05/06 08:21:24;;;;;;;7.43;3.23;;;9.90;90.30;;;;;;5054748;28;21140;-43
2021/05/06 08:23:50;;;;;;;5.73;2.80;;;9.80;90.30;;;;;;5055691;28;20202;-43
2021/05/06 08:26:16;;;;;;;5.43;3.03;;;9.90;90.50;;;;;;5055784;28;20853;-43
2021/05/06 08:28:41;;;;;;;5.77;2.87;;;10.00;89.90;;;;;;5056122;28;20485;-43
2021/05/06 08:31:08;;;;;;;4.60;3.27;;;10.10;89.90;;;;;;5055024;28;20181;-43
2021/05/06 08:33:35;;;;;;;13.97;3.03;;;10.00;89.00;;;;;;5056152;28;20165;-43
2021/05/06 08:36:01;;;;;;;4.70;2.83;;;10.00;88.70;;;;;;5056179;28;20503;-43
2021/05/06 08:38:27;;;;;;;5.57;3.10;;;9.80;90.60;;;;;;5056546;28;20407;-42
2021/05/06 08:40:53;;;;;;;11.70;4.10;;;9.90;90.60;;;;;;5055632;28;20420;-41
2021/05/06 08:43:20;;;;;;;8.17;3.60;;;9.90;90.50;;;;;;5053651;28;20178;-43
2021/05/06 08:45:50;;;;;;;6.30;3.10;;;9.80;90.30;;;;;;5053074;28;20419;-42
2021/05/06 08:48:17;;;;;;;5.00;3.50;;;9.90;90.20;;;;;;5055224;28;20416;-43
2021/05/06 08:50:44;;;;;;;4.13;2.60;;;10.00;88.80;;;;;;5055549;28;20788;-44
2021/05/06 08:53:11;;;;;;;4.90;2.87;;;9.80;90.70;;;;;;5055119;28;20470;-43
2021/05/06 08:55:36;;;;;;;6.73;3.20;;;9.40;90.90;;;;;;5054758;28;20413;-44
2021/05/06 08:58:02;;;;;;;5.97;2.93;;;9.40;91.70;;;;;;5054138;28;20442;-43
2021/05/06 09:00:28;;;;;;;7.47;3.30;;;9.60;91.70;;;;;;5055528;28;20448;-44
2021/05/06 09:02:54;;;;;;;4.70;3.20;;;9.40;92.10;;;;;;5055738;28;20235;-42
2021/05/06 09:05:22;;;;;;;5.20;3.40;;;9.50;92.80;;;;;;5054324;28;20564;-42
2021/05/06 09:07:48;;;;;;;6.87;3.07;;;9.60;92.80;;;;;;5055692;28;20170;-43
2021/05/06 09:10:39;;;;;;;5.20;3.50;;;9.60;93.10;;;;;;5056261;28;20504;-43
2021/05/06 09:13:25;;;;;;;5.37;2.97;;;9.70;93.50;;;;;;5056539;28;20259;-43
2021/05/06 09:15:51;;;;;;;4.73;3.10;;;9.60;93.50;;;;;;5047396;28;20449;-44
2021/05/06 09:18:39;;;;;;;7.03;3.13;;;9.60;93.70;;;;;;5035858;28;20465;-44
2021/05/06 09:21:07;;;;;;;4.47;2.83;;;9.50;94.00;;;;;;5034188;28;20230;-43
2021/05/06 09:23:34;;;;;;;12.33;3.90;;;9.50;94.40;;;;;;5066400;28;20420;-44
2021/05/06 09:26:05;;;;;;;4.27;3.57;;;9.50;94.60;;;;;;5034396;28;20412;-44
2021/05/06 09:28:33;;;;;;;6.30;3.53;;;9.20;94.90;;;;;;5036348;28;20420;-43
2021/05/06 09:31:04;;;;;;;4.10;2.73;;;9.20;94.80;;;;;;5034349;28;20402;-43
2021/05/06 09:33:33;;;;;;;7.43;3.13;;;9.20;94.90;;;;;;5034360;28;20405;-43
2021/05/06 09:36:11;;;;;;;9.30;3.97;;;9.10;94.50;;;;;;5034774;28;20406;-44
2021/05/06 09:38:42;;;;;;;9.47;4.37;;;9.10;95.20;;;;;;5034313;28;20405;-44
2021/05/06 09:41:09;;;;;;;8.87;4.33;;;9.10;95.40;;;;;;5033927;28;20456;-43
2021/05/06 09:43:43;;;;;;;4.93;4.10;;;9.10;96.70;;;;;;5034862;28;20420;-44
2021/05/06 09:46:27;;;;;;;4.60;3.80;;;9.20;96.50;;;;;;5039117;28;20415;-44
2021/05/06 09:49:13;;;;;;;6.93;4.10;;;9.20;96.40;;;;;;5038705;28;20692;-44
2021/05/06 09:51:50;;;;;;;7.50;4.03;;;9.10;96.80;;;;;;5054855;28;20440;-43
2021/05/06 09:54:20;;;;;;;6.77;3.70;;;9.10;97.30;;;;;;5039444;28;20420;-43
2021/05/06 09:56:48;;;;;;;6.40;3.80;;;8.90;97.30;;;;;;5038406;28;20435;-42
2021/05/06 09:59:26;;;;;;;8.23;3.40;;;8.90;97.50;;;;;;5070980;28;20435;-43
2021/05/06 10:01:52;;;;;;;2.80;2.60;;;8.70;98.10;;;;;;5038291;28;20770;-44
2021/05/06 10:04:23;;;;;;;7.40;3.20;;;8.40;98.10;;;;;;5039686;28;20427;-43
2021/05/06 10:07:09;;;;;;;5.40;3.03;;;8.20;99.00;;;;;;5040255;28;20420;-43
2021/05/06 10:09:48;;;;;;;4.93;2.70;;;8.20;99.10;;;;;;5039401;28;20405;-43
2021/05/06 10:12:15;;;;;;;7.27;3.57;;;8.10;99.00;;;;;;5038778;28;20417;-43
2021/05/06 10:14:41;;;;;;;3.67;2.70;;;8.30;98.80;;;;;;5039406;28;20413;-44
2021/05/06 10:17:07;;;;;;;4.40;3.13;;;8.40;98.70;;;;;;5072404;28;20428;-42
2021/05/06 10:19:32;;;;;;;4.90;2.67;;;8.60;98.60;;;;;;5039944;28;20464;-43
2021/05/06 10:21:58;;;;;;;4.77;3.20;;;8.40;98.40;;;;;;5039088;28;20628;-44
2021/05/06 10:24:26;;;;;;;4.50;2.60;;;8.50;98.70;;;;;;5070097;28;20214;-42
2021/05/06 10:26:52;;;;;;;3.90;2.17;;;8.50;97.70;;;;;;5039465;28;20672;-42
2021/05/06 10:29:18;;;;;;;4.00;2.60;;;8.40;97.00;;;;;;5038661;28;20452;-43
2021/05/06 10:31:45;;;;;;;4.43;3.17;;;8.50;97.40;;;;;;5068071;28;20265;-43
2021/05/06 10:34:11;;;;;;;4.50;2.40;;;8.40;96.80;;;;;;5035919;28;20870;-44
2021/05/06 10:36:38;;;;;;;3.60;2.50;;;8.40;97.50;;;;;;5066854;28;20439;-44
2021/05/06 10:39:12;;;;;;;7.30;3.27;;;8.30;97.80;;;;;;5069131;28;20409;-43
2021/05/06 10:41:38;;;;;;;3.07;2.70;;;8.10;98.60;;;;;;5068847;28;20504;-43
2021/05/06 10:44:09;;;;;;;8.00;3.33;;;8.20;98.60;;;;;;5036989;28;20511;-42
2021/05/06 10:47:01;;;;;;;4.93;3.13;;;8.20;98.90;;;;;;5038980;28;20792;-42
2021/05/06 10:49:51;;;;;;;4.03;2.80;;;8.30;98.40;;;;;;5038759;28;20428;-42
2021/05/06 10:52:17;;;;;;;3.03;2.50;;;8.70;98.60;;;;;;5039480;28;20484;-43
2021/05/06 10:54:46;;;;;;;4.17;2.40;;;8.80;97.70;;;;;;5035713;28;20440;-43
2021/05/06 10:57:12;;;;;;;5.30;3.30;;;9.00;97.30;;;;;;5039663;28;20429;-44
2021/05/06 10:59:39;;;;;;;3.30;2.77;;;9.10;97.00;;;;;;5039161;28;20879;-42
2021/05/06 11:02:05;;;;;;;5.50;2.60;;;9.30;97.00;;;;;;5039050;28;20475;-42
2021/05/06 11:04:39;;;;;;;3.43;2.40;;;9.50;96.50;;;;;;5037979;28;20503;-44
2021/05/06 11:07:18;;;;;;;3.47;2.60;;;9.30;96.50;;;;;;5037452;28;20421;-44
2021/05/06 11:09:47;;;;;;;3.50;2.40;;;9.30;96.60;;;;;;5068447;28;20416;-43
2021/05/06 11:12:16;;;;;;;3.40;2.13;;;9.50;95.80;;;;;;5036222;28;20709;-42
2021/05/06 11:15:00;;;;;;;4.10;2.00;;;9.40;95.90;;;;;;5038378;28;20433;-43
2021/05/06 11:17:35;;;;;;;2.70;2.40;;;9.80;95.90;;;;;;5054618;28;20715;-44
2021/05/06 11:20:26;;;;;;;3.40;2.20;;;10.10;94.70;;;;;;5039115;28;20472;-43
2021/05/06 11:22:55;;;;;;;1.70;1.23;;;10.10;92.80;;;;;;5038461;28;20469;-43
2021/05/06 11:28:04;;;;;;;2.60;1.10;;;10.00;93.10;;;;;;5037846;28;20436;-43
2021/05/06 11:30:38;;;;;;;2.67;1.50;;;10.00;93.10;;;;;;5035387;28;20409;-42
2021/05/06 11:33:16;;;;;;;1.93;1.10;;;10.00;92.80;;;;;;5037711;28;20436;-45
2021/05/06 11:36:04;;;;;;;6.50;1.30;;;10.00;92.10;;;;;;5038697;28;20452;-45
2021/05/06 11:38:39;;;;;;;2.63;1.00;;;10.20;92.00;;;;;;5037464;28;20818;-45
2021/05/06 11:41:07;;;;;;;1.97;1.67;;;10.50;92.10;;;;;;5037708;28;20401;-45
2021/05/06 11:43:34;;;;;;;1.27;1.10;;;10.90;90.90;;;;;;5038257;28;20476;-45
2021/05/06 11:46:07;;;;;;;2.60;1.23;;;11.30;90.30;;;;;;5038616;28;20445;-45
2021/05/06 11:48:37;;;;;;;1.53;1.40;;;11.60;88.60;;;;;;5038727;28;20413;-44
2021/05/06 11:51:04;;;;;;;1.83;1.20;;;11.50;87.10;;;;;;5037568;28;20437;-45
2021/05/06 11:53:30;;;;;;;3.73;1.43;;;11.00;89.80;;;;;;5069743;28;20441;-45
2021/05/06 11:55:56;;;;;;;1.67;1.57;;;11.10;89.50;;;;;;5038483;28;20451;-45
2021/05/06 11:58:23;;;;;;;1.90;1.43;;;10.90;89.90;;;;;;5037547;28;20515;-44
2021/05/06 12:00:52;;;;;;;1.70;1.53;;;11.10;89.20;;;;;;5036816;28;20376;-45
2021/05/06 12:03:18;;;;;;;1.63;1.37;;;10.90;89.50;;;;;;5035645;28;20719;-45
2021/05/06 12:05:59;;;;;;;1.93;1.73;;;11.00;89.80;;;;;;5036260;28;20639;-45
2021/05/06 12:08:49;;;;;;;1.30;1.00;;;11.30;89.60;;;;;;5035628;28;20468;-45
2021/05/06 12:11:16;;;;;;;3.80;1.47;;;11.50;89.30;;;;;;5039065;28;20425;-45
2021/05/06 12:13:51;;;;;;;2.23;1.50;;;11.70;87.60;;;;;;5037764;28;20449;-45
2021/05/06 12:16:18;;;;;;;1.70;1.50;;;11.30;88.50;;;;;;5038136;28;20719;-45
2021/05/06 12:19:13;;;;;;;2.63;2.07;;;11.20;88.40;;;;;;5037962;28;20413;-44
2021/05/06 12:21:48;;;;;;;3.00;1.77;;;11.20;90.10;;;;;;5036619;28;20520;-45
2021/05/06 12:24:36;;;;;;;1.93;1.30;;;11.30;89.90;;;;;;5035592;28;20409;-44
2021/05/06 12:27:21;;;;;;;1.97;1.60;;;11.40;88.40;;;;;;5037426;28;20417;-42
2021/05/06 12:29:48;;;;;;;2.60;2.40;;;10.10;90.90;;;;;;5036392;28;20507;-43
2021/05/06 12:32:18;;;;;;;3.30;1.80;;;9.60;92.80;;;;;;5035638;28;20425;-44
2021/05/06 12:34:43;;;;;;;2.47;1.93;;;9.30;93.70;;;;;;5037195;28;20452;-43
2021/05/06 12:37:09;;;;;;;2.10;1.37;;;9.20;94.50;;;;;;5038208;28;20453;-44
2021/05/06 12:39:35;;;;;;;2.13;1.70;;;9.20;95.30;;;;;;5038093;28;20189;-43
2021/05/06 12:42:06;;;;;;;2.60;1.50;;;9.40;95.70;;;;;;5037644;28;20464;-43
2021/05/06 12:44:45;;;;;;;2.00;1.70;;;9.50;95.80;;;;;;5035796;28;20486;-43
2021/05/06 12:47:19;;;;;;;2.50;1.77;;;9.20;96.20;;;;;;5034885;28;20464;-43
2021/05/06 12:49:49;;;;;;;3.40;1.80;;;9.30;96.90;;;;;;5034794;28;20407;-43
2021/05/06 12:52:32;;;;;;;1.70;1.50;;;9.40;96.60;;;;;;5068850;28;20520;-44
2021/05/06 12:54:59;;;;;;;1.70;1.60;;;9.20;96.40;;;;;;5036329;28;20567;-43
2021/05/06 12:57:25;;;;;;;2.23;2.03;;;9.00;96.90;;;;;;5036250;28;20425;-43
2021/05/06 12:59:51;;;;;;;2.80;1.90;;;9.00;97.20;;;;;;5037303;28;20428;-44
2021/05/06 13:02:18;;;;;;;2.57;1.90;;;8.90;97.50;;;;;;5036614;28;20588;-44
2021/05/06 13:04:51;;;;;;;2.10;1.90;;;8.80;97.90;;;;;;5037225;28;20166;-43
2021/05/06 13:07:18;;;;;;;2.20;1.63;;;8.90;98.50;;;;;;5036922;28;20464;-43
2021/05/06 13:09:51;;;;;;;2.63;2.40;;;8.90;98.30;;;;;;5036101;28;20669;-42
2021/05/06 13:12:25;;;;;;;2.40;2.20;;;8.90;98.60;;;;;;5036397;28;20492;-44
2021/05/06 13:15:00;;;;;;;4.80;2.60;;;8.80;99.20;;;;;;5035937;28;20417;-42
2021/05/06 13:17:27;;;;;;;2.60;2.40;;;8.90;99.50;;;;;;5035276;28;20471;-43
2021/05/06 13:19:54;;;;;;;3.77;2.77;;;8.80;99.30;;;;;;5036519;28;20475;-44
2021/05/06 13:22:20;;;;;;;3.80;2.77;;;8.90;99.70;;;;;;5037104;28;20519;-43
2021/05/06 13:24:50;;;;;;;3.10;2.30;;;8.90;99.80;;;;;;5037640;28;20423;-43
2021/05/06 13:27:24;;;;;;;2.93;2.40;;;8.80;99.70;;;;;;5037941;28;20478;-44
2021/05/06 13:30:00;;;;;;;3.70;2.40;;;8.70;99.90;;;;;;5070429;28;20443;-43
2021/05/06 13:32:41;;;;;;;3.80;3.00;;;8.70;99.90;;;;;;5039513;28;20443;-44
2021/05/06 13:35:15;;;;;;;4.17;3.00;;;8.80;99.90;;;;;;5053591;28;20727;-43
2021/05/06 13:37:44;;;;;;;3.40;3.10;;;8.90;99.90;;;;;;5039432;28;20876;-43
2021/05/06 13:40:10;;;;;;;2.60;2.37;;;9.00;99.90;;;;;;5038707;28;20413;-43
2021/05/06 13:42:36;;;;;;;5.07;2.77;;;9.00;99.90;;;;;;5038931;28;20509;-43
2021/05/06 13:45:04;;;;;;;3.60;2.77;;;8.90;99.60;;;;;;5037154;28;20854;-43
2021/05/06 13:47:30;;;;;;;3.60;3.10;;;8.90;99.80;;;;;;5037707;28;20483;-43
2021/05/06 13:49:55;;;;;;;4.17;2.90;;;9.00;99.90;;;;;;5038109;28;20413;-43
2021/05/06 13:52:24;;;;;;;4.13;3.30;;;9.00;99.90;;;;;;5037276;28;20179;-44
2021/05/06 13:54:51;;;;;;;5.03;3.20;;;8.90;99.90;;;;;;5036018;28;20452;-44
2021/05/06 13:57:17;;;;;;;3.50;3.20;;;8.90;99.90;;;;;;5037299;28;20715;-44
2021/05/06 13:59:43;;;;;;;3.47;3.17;;;9.00;99.90;;;;;;5038327;28;20508;-43
2021/05/06 14:02:09;;;;;;;4.90;3.27;;;9.00;99.90;;;;;;5038035;28;20564;-44
2021/05/06 14:04:35;;;;;;;1.90;1.60;;;9.00;99.90;;;;;;5036459;28;20201;-44
2021/05/06 14:07:00;;;;;;;3.70;2.30;;;8.90;99.90;;;;;;5038273;28;20240;-43
2021/05/06 14:09:26;;;;;;;4.20;2.90;;;9.00;99.90;;;;;;5055006;28;20269;-42
2021/05/06 14:11:52;;;;;;;2.63;1.80;;;8.90;99.90;;;;;;5036894;28;20464;-43
2021/05/06 14:14:18;;;;;;;1.40;1.30;;;8.80;99.90;;;;;;5037157;28;20248;-43
2021/05/06 14:16:44;;;;;;;2.90;1.63;;;8.80;99.90;;;;;;5037949;28;20429;-43
2021/05/06 14:19:12;;;;;;;1.93;1.60;;;8.70;99.90;;;;;;5030516;28;667948;-42
2021/05/06 14:21:39;;;;;;;1.87;1.60;;;8.50;99.90;;;;;;5038837;28;20850;-43
2021/05/06 14:24:06;;;;;;;2.47;1.77;;;8.60;99.90;;;;;;5039717;28;20592;-42
2021/05/06 14:26:32;;;;;;;1.53;1.43;;;8.50;99.90;;;;;;5037091;28;20774;-43
2021/05/06 14:29:01;;;;;;;1.83;1.57;;;8.40;99.90;;;;;;5037203;28;20460;-43
2021/05/06 14:31:26;;;;;;;2.70;2.03;;;8.50;99.90;;;;;;5038869;28;20428;-43
2021/05/06 14:33:52;;;;;;;3.13;1.50;;;8.50;99.90;;;;;;5070759;28;20691;-43
2021/05/06 14:36:18;;;;;;;1.80;1.37;;;8.30;99.90;;;;;;5038343;28;20175;-43
2021/05/06 14:38:44;;;;;;;3.40;1.60;;;8.30;99.90;;;;;;5071796;28;20218;-44
2021/05/06 14:41:11;;;;;;;3.67;1.50;;;8.30;99.90;;;;;;5038283;28;20171;-40
2021/05/06 14:43:37;;;;;;;1.90;1.23;;;8.30;99.90;;;;;;5039389;28;20561;-43
2021/05/06 14:46:03;;;;;;;4.20;1.67;;;8.30;99.90;;;;;;5036547;28;20905;-43
2021/05/06 14:48:29;;;;;;;1.90;1.60;;;8.30;99.90;;;;;;5038205;28;20498;-42
2021/05/06 14:50:55;;;;;;;3.83;1.60;;;8.40;99.90;;;;;;5037279;28;20429;-43
2021/05/06 14:53:21;;;;;;;1.90;1.43;;;8.30;99.90;;;;;;5037462;28;20179;-43
2021/05/06 14:55:47;;;;;;;1.70;1.10;;;8.40;99.90;;;;;;5039271;28;20451;-42
2021/05/06 14:58:12;;;;;;;3.20;1.50;;;8.50;99.90;;;;;;5039522;28;20187;-43
2021/05/06 15:00:38;;;;;;;3.97;1.63;;;8.50;99.90;;;;;;5037950;28;20499;-43
2021/05/06 15:03:04;;;;;;;1.63;1.10;;;8.60;99.90;;;;;;5038705;28;20669;-43
2021/05/06 15:05:30;;;;;;;1.53;1.10;;;8.50;99.90;;;;;;5039207;28;20500;-42
2021/05/06 15:07:57;;;;;;;3.50;1.20;;;8.70;99.90;;;;;;5039423;28;20490;-43
2021/05/06 15:10:23;;;;;;;1.60;1.20;;;8.90;99.90;;;;;;5070853;28;20426;-42
2021/05/06 15:12:48;;;;;;;1.13;1.03;;;9.00;99.90;;;;;;5037462;28;20487;-41
2021/05/06 15:15:16;;;;;;;2.37;1.37;;;9.00;99.90;;;;;;5038015;28;20187;-44
2021/05/06 15:17:42;;;;;;;1.33;1.10;;;9.00;99.90;;;;;;5037825;28;20232;-43
2021/05/06 15:20:09;;;;;;;1.47;1.23;;;9.00;99.90;;;;;;5037396;28;20879;-43
2021/05/06 15:22:36;;;;;;;1.27;1.13;;;9.00;99.90;;;;;;5037634;28;20472;-41
2021/05/06 15:25:03;;;;;;;4.40;1.60;;;8.90;99.90;;;;;;5069515;28;20424;-43
2021/05/06 15:27:28;;;;;;;1.90;1.43;;;8.90;99.90;;;;;;5035677;28;20831;-43
2021/05/06 15:29:54;;;;;;;1.73;1.63;;;8.80;99.90;;;;;;5035901;28;20427;-44
2021/05/06 15:32:19;;;;;;;2.93;1.57;;;8.80;99.90;;;;;;5037067;28;20232;-43
2021/05/06 15:34:47;;;;;;;2.30;1.80;;;8.90;99.90;;;;;;5036847;28;20373;-41
2021/05/06 15:37:13;;;;;;;2.70;2.20;;;8.90;99.90;;;;;;5037469;28;20202;-43
2021/05/06 15:39:39;;;;;;;1.70;1.40;;;8.90;99.90;;;;;;5038335;28;20429;-42
2021/05/06 15:42:05;;;;;;;2.90;1.80;;;8.90;99.90;;;;;;5035754;28;20558;-43
2021/05/06 15:44:31;;;;;;;3.60;1.83;;;8.90;99.90;;;;;;5037237;28;20421;-43
2021/05/06 15:47:00;;;;;;;3.80;1.83;;;8.90;99.90;;;;;;5070458;28;20905;-43
2021/05/06 15:49:31;;;;;;;2.00;1.80;;;8.80;99.90;;;;;;5037522;28;20445;-43
2021/05/06 15:51:58;;;;;;;4.60;2.30;;;8.80;99.90;;;;;;5038141;28;20435;-42
2021/05/06 15:54:23;;;;;;;2.37;2.17;;;8.70;99.90;;;;;;5037719;28;20417;-41
2021/05/06 15:56:49;;;;;;;2.70;1.93;;;8.70;99.90;;;;;;5038423;28;20429;-42
2021/05/06 15:59:15;;;;;;;2.17;1.90;;;8.60;99.90;;;;;;5036556;28;20520;-44
2021/05/06 16:01:40;;;;;;;2.77;2.20;;;8.60;99.90;;;;;;5036477;28;20218;-43
2021/05/06 16:04:09;;;;;;;3.53;1.77;;;8.50;99.90;;;;;;5037494;28;20317;-44
2021/05/06 16:06:36;;;;;;;3.17;2.50;;;8.40;99.90;;;;;;5037419;28;20213;-44
2021/05/06 16:09:02;;;;;;;3.23;2.33;;;8.40;99.90;;;;;;5037509;28;20417;-42
2021/05/06 16:11:27;;;;;;;4.07;3.30;;;8.40;99.90;;;;;;5038079;28;20582;-43
2021/05/06 16:13:53;;;;;;;2.80;2.60;;;8.40;99.90;;;;;;5037406;28;20548;-41
2021/05/06 16:16:18;;;;;;;2.27;2.00;;;8.40;99.90;;;;;;5037111;28;20265;-40
2021/05/06 16:18:47;;;;;;;2.83;2.53;;;8.40;99.90;;;;;;5037754;28;20577;-41
2021/05/06 16:21:14;;;;;;;2.90;2.70;;;8.40;99.90;;;;;;5037281;28;20624;-41
2021/05/06 16:23:40;;;;;;;5.17;3.70;;;8.50;99.90;;;;;;5037472;28;20441;-40
2021/05/06 16:26:06;;;;;;;3.23;2.37;;;8.60;99.90;;;;;;5037546;28;20838;-40
2021/05/06 16:28:32;;;;;;;3.20;2.80;;;8.90;99.90;;;;;;5037009;28;20174;-40
2021/05/06 16:31:01;;;;;;;2.87;2.40;;;9.40;99.90;;;;;;5037346;28;20711;-45
2021/05/06 16:33:27;;;;;;;2.90;2.30;;;10.00;99.90;;;;;;5037007;28;20194;-45
2021/05/06 16:36:02;;;;;;;2.00;1.43;;;10.30;99.90;;;;;;5038556;28;20653;-45
2021/05/06 16:38:30;;;;;;;2.10;1.90;;;10.40;99.90;;;;;;5038080;28;20433;-44
2021/05/06 16:41:02;;;;;;;1.70;1.60;;;10.40;99.90;;;;;;5037174;28;20483;-45
2021/05/06 16:43:44;;;;;;;2.10;1.90;;;10.30;99.90;;;;;;5037448;28;20421;-44